マレ の空港の天気 - METARとTAF

マレ国際空港 ( VRMM / MLE ) - モルディブ Hulhule Island, North Male Atoll
飛行場実況気象(Metar)
観測時間05/25 15:00 +05 (05/25 10:00 UTC)
風向・風速南西 7m/s
視程8000m
天気現象弱い雨
全天の4割程度の雲 雲底高度 490m
少しの雲 雲底高度 520m
全天を覆う雲 雲底高度 3050m
気温26℃
湿度94%
気圧1009hPa
METARVRMM 251000Z 22014KT 8000 -RA SCT016 FEW017CB OVC100 26/25 Q1009 CB NE,W TEMPO 4000 SHRA
過去の天気等 Google飛行場航空写真 Wunderground天気予報

過去48時間のMETAR

飛行場予報(TAF)
発表時間: 5/25 10:00 +05 (5/25 05:00 UTC)
予報対象時間: 25日11時 +05 ~ 26日17時 +05
風向・風速西南西 7m/s
視程10km以上
全天の4割程度の塔状積雲 雲底高度 520m
25日11時 +05 ~ 25日17時 +05 に一時的に
視程5,000m
天気現象弱いしゅう雨
少しの積乱雲 雲底高度 520m
TAF VRMM 250500Z 2506/2612 24013KT 9999 SCT017TCU
TEMPO 2506/2512 5000 -SHRA FEW017CB